createdAt,value
2022-11-14T00:00:01.287Z,60.90
2022-11-14T00:10:00.275Z,58.50
2022-11-14T00:20:01.256Z,69.60
2022-11-14T00:30:00.254Z,66.10
2022-11-14T00:40:01.496Z,58.20
2022-11-14T00:50:01.145Z,88.20
2022-11-14T01:00:01.539Z,65.40
2022-11-14T01:10:01.942Z,68.30
2022-11-14T01:20:01.048Z,74.90
2022-11-14T01:30:01.205Z,66.10
2022-11-14T01:40:00.171Z,71.80
2022-11-14T01:50:00.270Z,76.10
2022-11-14T02:00:02.735Z,70.50
2022-11-14T02:10:01.299Z,81.10
2022-11-14T02:20:04.991Z,78.70
2022-11-14T02:40:01.276Z,82.60
2022-11-14T03:00:01.032Z,83.10
2022-11-14T03:20:00.162Z,81.90
2022-11-14T03:40:00.172Z,70.50
2022-11-14T03:50:00.264Z,84.50
2022-11-14T04:00:01.040Z,87.00
2022-11-14T04:10:01.103Z,78.00
2022-11-14T04:20:01.299Z,81.10
2022-11-14T04:30:01.355Z,68.40
2022-11-14T04:40:01.027Z,74.60
2022-11-14T04:50:00.250Z,94.40
2022-11-14T05:00:00.116Z,83.30
2022-11-14T05:10:01.583Z,86.50
2022-11-14T05:20:00.124Z,88.20
2022-11-14T05:30:00.183Z,81.70
2022-11-14T05:40:00.993Z,78.20
2022-11-14T05:50:01.304Z,89.70
2022-11-14T06:00:00.156Z,84.30
2022-11-14T06:10:00.163Z,80.40
2022-11-14T06:20:01.251Z,75.40
2022-11-14T06:30:01.313Z,71.60
2022-11-14T06:40:00.153Z,76.60
2022-11-14T07:00:01.323Z,75.90
2022-11-14T07:10:01.469Z,62.80
2022-11-14T07:20:01.073Z,73.80
2022-11-14T07:30:00.186Z,88.10
2022-11-14T07:40:00.158Z,75.20
2022-11-14T07:50:00.177Z,60.20
2022-11-14T08:00:00.143Z,72.90
2022-11-14T08:10:01.056Z,83.90
2022-11-14T08:20:01.013Z,73.80
2022-11-14T08:30:01.097Z,75.20
2022-11-14T08:40:01.075Z,76.00
2022-11-14T08:50:01.045Z,59.10
2022-11-14T09:00:01.232Z,68.90
2022-11-14T09:10:01.008Z,71.80
2022-11-14T09:20:01.284Z,64.30
2022-11-14T09:30:01.048Z,66.50
2022-11-14T09:40:01.016Z,66.50
2022-11-14T09:50:00.169Z,65.80
2022-11-14T10:00:00.979Z,68.50
2022-11-14T10:10:01.493Z,56.00
2022-11-14T10:20:01.312Z,59.10
2022-11-14T10:30:01.094Z,58.90
2022-11-14T10:40:00.155Z,57.50
2022-11-14T10:50:01.175Z,48.40
2022-11-14T11:00:01.015Z,51.30
2022-11-14T11:10:00.155Z,56.80
2022-11-14T11:20:05.126Z,64.30
2022-11-14T11:30:01.087Z,64.70
2022-11-14T11:40:00.168Z,57.60
2022-11-14T11:50:01.313Z,57.70
2022-11-14T12:00:00.140Z,51.10
2022-11-14T12:10:10.071Z,55.90
2022-11-14T12:20:00.147Z,50.10
2022-11-14T12:30:00.184Z,46.80
2022-11-14T12:40:01.058Z,52.00
2022-11-14T12:50:01.091Z,37.60
2022-11-14T13:00:01.187Z,42.10
2022-11-14T13:10:01.117Z,40.80
2022-11-14T13:20:01.296Z,35.70
2022-11-14T13:30:02.128Z,47.70
2022-11-14T13:40:02.696Z,37.70
2022-11-14T13:50:00.167Z,42.80
2022-11-14T14:00:01.113Z,39.10
2022-11-14T14:10:00.170Z,36.80
2022-11-14T14:20:00.141Z,40.40
2022-11-14T14:30:00.165Z,32.70
2022-11-14T14:40:01.232Z,32.70
2022-11-14T14:50:00.164Z,40.10
2022-11-14T15:00:01.049Z,34.60
2022-11-14T15:10:00.146Z,37.10
2022-11-14T15:20:00.929Z,39.00
2022-11-14T15:30:01.120Z,34.20
2022-11-14T15:40:01.097Z,31.20
2022-11-14T15:50:01.197Z,32.40
2022-11-14T16:00:01.005Z,51.40
2022-11-14T16:10:01.135Z,31.30
2022-11-14T16:20:01.137Z,37.00
2022-11-14T16:30:01.174Z,32.90
2022-11-14T16:40:01.147Z,39.50
2022-11-14T16:50:01.064Z,39.20
2022-11-14T17:00:01.042Z,41.80
2022-11-14T17:10:01.866Z,40.10
2022-11-14T17:20:01.175Z,37.60
2022-11-14T17:30:01.289Z,42.30
2022-11-14T17:40:01.247Z,40.80
2022-11-14T17:50:00.180Z,39.00
2022-11-14T18:00:01.059Z,39.50
2022-11-14T18:10:01.567Z,41.30
2022-11-14T18:20:01.896Z,37.40
2022-11-14T18:30:13.656Z,46.00
2022-11-14T18:40:01.289Z,35.60
2022-11-14T18:50:01.980Z,38.20
2022-11-14T19:00:01.090Z,34.60
2022-11-14T19:10:01.600Z,42.20
2022-11-14T19:20:00.156Z,46.10
2022-11-14T19:30:01.338Z,48.00
2022-11-14T19:40:00.179Z,38.20
2022-11-14T19:50:02.016Z,45.20
2022-11-14T20:00:01.083Z,60.40
2022-11-14T20:10:01.048Z,40.80
2022-11-14T20:20:01.225Z,37.60
2022-11-14T20:30:01.094Z,40.10
2022-11-14T20:40:00.147Z,43.30
2022-11-14T20:50:00.151Z,42.80
2022-11-14T21:00:01.055Z,43.70
2022-11-14T21:10:00.134Z,45.80
2022-11-14T21:20:02.394Z,42.70
2022-11-14T21:30:01.317Z,50.60
2022-11-14T21:40:01.249Z,48.20
2022-11-14T21:50:01.523Z,46.50
2022-11-14T22:00:00.162Z,50.00
2022-11-14T22:10:01.297Z,40.80
2022-11-14T22:20:01.079Z,49.00
2022-11-14T22:30:00.183Z,47.50
2022-11-14T22:40:00.981Z,57.10
2022-11-14T22:50:02.110Z,53.20
2022-11-14T23:00:01.577Z,50.10
2022-11-14T23:10:01.046Z,45.20
2022-11-14T23:20:00.963Z,42.30
2022-11-14T23:30:01.299Z,46.20
2022-11-14T23:40:00.148Z,46.60
2022-11-14T23:50:01.275Z,49.30
